sensor_id;sensor_type;location;lat;lon;timestamp;P1;durP1;ratioP1;P2;durP2;ratioP2
18302;SDS011;9277;37.980;23.748;2023-12-04T00:00:46;20.85;;;6.63;;
18302;SDS011;9277;37.980;23.748;2023-12-04T00:03:12;18.77;;;5.80;;
18302;SDS011;9277;37.980;23.748;2023-12-04T00:05:43;15.68;;;6.15;;
18302;SDS011;9277;37.980;23.748;2023-12-04T00:08:10;19.60;;;6.82;;
18302;SDS011;9277;37.980;23.748;2023-12-04T00:10:37;10.10;;;5.38;;
18302;SDS011;9277;37.980;23.748;2023-12-04T00:13:04;18.13;;;6.00;;
18302;SDS011;9277;37.980;23.748;2023-12-04T00:15:31;17.30;;;5.88;;
18302;SDS011;9277;37.980;23.748;2023-12-04T00:17:57;13.13;;;5.43;;
18302;SDS011;9277;37.980;23.748;2023-12-04T00:20:24;13.95;;;5.47;;
18302;SDS011;9277;37.980;23.748;2023-12-04T00:22:53;10.02;;;4.80;;
18302;SDS011;9277;37.980;23.748;2023-12-04T00:25:20;16.38;;;5.47;;
18302;SDS011;9277;37.980;23.748;2023-12-04T00:27:46;16.17;;;4.90;;
18302;SDS011;9277;37.980;23.748;2023-12-04T00:30:13;11.70;;;4.32;;
18302;SDS011;9277;37.980;23.748;2023-12-04T00:32:40;13.40;;;5.13;;
18302;SDS011;9277;37.980;23.748;2023-12-04T00:35:07;13.15;;;4.63;;
18302;SDS011;9277;37.980;23.748;2023-12-04T00:37:34;8.43;;;3.92;;
18302;SDS011;9277;37.980;23.748;2023-12-04T00:40:05;10.13;;;4.40;;
18302;SDS011;9277;37.980;23.748;2023-12-04T00:42:32;11.55;;;4.18;;
18302;SDS011;9277;37.980;23.748;2023-12-04T00:44:59;15.07;;;4.18;;
18302;SDS011;9277;37.980;23.748;2023-12-04T00:47:26;13.57;;;4.15;;
18302;SDS011;9277;37.980;23.748;2023-12-04T00:49:53;12.25;;;4.85;;
18302;SDS011;9277;37.980;23.748;2023-12-04T00:52:20;15.07;;;4.15;;
18302;SDS011;9277;37.980;23.748;2023-12-04T00:54:47;10.82;;;4.43;;
18302;SDS011;9277;37.980;23.748;2023-12-04T00:57:15;9.77;;;3.63;;
18302;SDS011;9277;37.980;23.748;2023-12-04T00:59:42;16.10;;;4.10;;
18302;SDS011;9277;37.980;23.748;2023-12-04T01:02:09;13.52;;;3.97;;
18302;SDS011;9277;37.980;23.748;2023-12-04T01:04:36;10.15;;;3.95;;
18302;SDS011;9277;37.980;23.748;2023-12-04T01:07:06;11.73;;;4.13;;
18302;SDS011;9277;37.980;23.748;2023-12-04T01:09:34;9.63;;;4.07;;
18302;SDS011;9277;37.980;23.748;2023-12-04T01:12:01;16.80;;;5.82;;
18302;SDS011;9277;37.980;23.748;2023-12-04T01:14:29;17.40;;;6.32;;
18302;SDS011;9277;37.980;23.748;2023-12-04T01:16:56;21.85;;;6.60;;
18302;SDS011;9277;37.980;23.748;2023-12-04T01:19:23;17.63;;;6.32;;
18302;SDS011;9277;37.980;23.748;2023-12-04T01:21:50;22.60;;;6.53;;
18302;SDS011;9277;37.980;23.748;2023-12-04T01:24:18;16.65;;;6.43;;
18302;SDS011;9277;37.980;23.748;2023-12-04T01:26:45;15.88;;;6.38;;
18302;SDS011;9277;37.980;23.748;2023-12-04T01:29:11;18.15;;;7.75;;
18302;SDS011;9277;37.980;23.748;2023-12-04T01:31:40;15.50;;;6.13;;
18302;SDS011;9277;37.980;23.748;2023-12-04T01:34:07;14.02;;;6.60;;
18302;SDS011;9277;37.980;23.748;2023-12-04T01:36:33;23.27;;;8.07;;
18302;SDS011;9277;37.980;23.748;2023-12-04T01:39:00;17.35;;;7.55;;
18302;SDS011;9277;37.980;23.748;2023-12-04T01:41:28;21.50;;;8.30;;
18302;SDS011;9277;37.980;23.748;2023-12-04T01:43:55;21.08;;;7.63;;
18302;SDS011;9277;37.980;23.748;2023-12-04T01:46:22;17.17;;;8.07;;
18302;SDS011;9277;37.980;23.748;2023-12-04T01:48:51;16.10;;;7.95;;
18302;SDS011;9277;37.980;23.748;2023-12-04T01:51:18;16.17;;;7.63;;
18302;SDS011;9277;37.980;23.748;2023-12-04T01:53:46;17.60;;;7.10;;
18302;SDS011;9277;37.980;23.748;2023-12-04T01:56:13;23.05;;;7.70;;
18302;SDS011;9277;37.980;23.748;2023-12-04T01:58:41;20.08;;;7.65;;
18302;SDS011;9277;37.980;23.748;2023-12-04T02:01:08;18.52;;;7.90;;
18302;SDS011;9277;37.980;23.748;2023-12-04T02:03:35;22.60;;;8.68;;
18302;SDS011;9277;37.980;23.748;2023-12-04T02:06:04;20.38;;;7.90;;
18302;SDS011;9277;37.980;23.748;2023-12-04T02:08:31;18.77;;;7.38;;
18302;SDS011;9277;37.980;23.748;2023-12-04T02:10:58;20.00;;;7.60;;
18302;SDS011;9277;37.980;23.748;2023-12-04T02:13:25;19.98;;;7.30;;
18302;SDS011;9277;37.980;23.748;2023-12-04T02:15:53;21.05;;;7.18;;
18302;SDS011;9277;37.980;23.748;2023-12-04T02:18:20;18.70;;;7.30;;
18302;SDS011;9277;37.980;23.748;2023-12-04T02:20:47;20.13;;;7.15;;
18302;SDS011;9277;37.980;23.748;2023-12-04T02:23:16;11.85;;;6.32;;
18302;SDS011;9277;37.980;23.748;2023-12-04T02:25:44;11.20;;;5.80;;
18302;SDS011;9277;37.980;23.748;2023-12-04T02:28:11;20.30;;;6.60;;
18302;SDS011;9277;37.980;23.748;2023-12-04T02:30:40;15.88;;;6.80;;
18302;SDS011;9277;37.980;23.748;2023-12-04T02:33:07;24.50;;;7.55;;
18302;SDS011;9277;37.980;23.748;2023-12-04T02:35:35;15.35;;;5.60;;
18302;SDS011;9277;37.980;23.748;2023-12-04T02:38:04;20.52;;;6.70;;
18302;SDS011;9277;37.980;23.748;2023-12-04T02:40:32;18.95;;;6.88;;
18302;SDS011;9277;37.980;23.748;2023-12-04T02:43:00;18.45;;;6.80;;
18302;SDS011;9277;37.980;23.748;2023-12-04T02:45:27;18.20;;;6.57;;
18302;SDS011;9277;37.980;23.748;2023-12-04T02:47:54;15.55;;;6.68;;
18302;SDS011;9277;37.980;23.748;2023-12-04T02:50:21;14.73;;;6.43;;
18302;SDS011;9277;37.980;23.748;2023-12-04T02:52:48;12.57;;;5.80;;
18302;SDS011;9277;37.980;23.748;2023-12-04T02:55:15;16.90;;;5.97;;
18302;SDS011;9277;37.980;23.748;2023-12-04T02:57:41;15.82;;;6.38;;
18302;SDS011;9277;37.980;23.748;2023-12-04T03:00:10;19.60;;;5.85;;
18302;SDS011;9277;37.980;23.748;2023-12-04T03:02:37;16.83;;;6.05;;
18302;SDS011;9277;37.980;23.748;2023-12-04T03:05:04;15.10;;;6.07;;
18302;SDS011;9277;37.980;23.748;2023-12-04T03:07:31;14.68;;;5.70;;
18302;SDS011;9277;37.980;23.748;2023-12-04T03:09:58;14.07;;;5.32;;
18302;SDS011;9277;37.980;23.748;2023-12-04T03:12:25;14.65;;;5.90;;
18302;SDS011;9277;37.980;23.748;2023-12-04T03:14:52;16.10;;;5.68;;
18302;SDS011;9277;37.980;23.748;2023-12-04T03:17:20;15.60;;;5.75;;
18302;SDS011;9277;37.980;23.748;2023-12-04T03:19:47;14.25;;;5.57;;
18302;SDS011;9277;37.980;23.748;2023-12-04T03:22:15;22.45;;;5.90;;
18302;SDS011;9277;37.980;23.748;2023-12-04T03:24:42;20.05;;;6.43;;
18302;SDS011;9277;37.980;23.748;2023-12-04T03:27:09;17.35;;;5.72;;
18302;SDS011;9277;37.980;23.748;2023-12-04T03:29:36;14.77;;;6.22;;
18302;SDS011;9277;37.980;23.748;2023-12-04T03:32:03;13.40;;;5.90;;
18302;SDS011;9277;37.980;23.748;2023-12-04T03:34:31;15.18;;;6.38;;
18302;SDS011;9277;37.980;23.748;2023-12-04T03:36:58;18.27;;;6.40;;
18302;SDS011;9277;37.980;23.748;2023-12-04T03:39:25;20.83;;;6.22;;
18302;SDS011;9277;37.980;23.748;2023-12-04T03:41:52;19.67;;;6.65;;
18302;SDS011;9277;37.980;23.748;2023-12-04T03:44:19;19.05;;;6.20;;
18302;SDS011;9277;37.980;23.748;2023-12-04T03:46:45;18.50;;;5.53;;
18302;SDS011;9277;37.980;23.748;2023-12-04T03:49:12;17.80;;;5.70;;
18302;SDS011;9277;37.980;23.748;2023-12-04T03:51:41;20.52;;;5.55;;
18302;SDS011;9277;37.980;23.748;2023-12-04T03:54:07;12.02;;;5.68;;
18302;SDS011;9277;37.980;23.748;2023-12-04T03:56:34;10.20;;;4.57;;
18302;SDS011;9277;37.980;23.748;2023-12-04T03:59:01;16.35;;;4.38;;
18302;SDS011;9277;37.980;23.748;2023-12-04T04:01:28;11.50;;;4.75;;
18302;SDS011;9277;37.980;23.748;2023-12-04T04:03:55;11.63;;;4.68;;
18302;SDS011;9277;37.980;23.748;2023-12-04T04:06:22;12.45;;;4.07;;
18302;SDS011;9277;37.980;23.748;2023-12-04T04:08:50;10.25;;;4.47;;
18302;SDS011;9277;37.980;23.748;2023-12-04T04:11:17;16.20;;;4.68;;
18302;SDS011;9277;37.980;23.748;2023-12-04T04:13:44;12.05;;;5.00;;
18302;SDS011;9277;37.980;23.748;2023-12-04T04:16:14;14.00;;;4.07;;
18302;SDS011;9277;37.980;23.748;2023-12-04T04:18:41;20.92;;;5.60;;
18302;SDS011;9277;37.980;23.748;2023-12-04T04:21:08;15.85;;;5.50;;
18302;SDS011;9277;37.980;23.748;2023-12-04T04:23:35;11.90;;;4.60;;
18302;SDS011;9277;37.980;23.748;2023-12-04T04:26:03;19.52;;;4.45;;
18302;SDS011;9277;37.980;23.748;2023-12-04T04:28:30;14.25;;;4.88;;
18302;SDS011;9277;37.980;23.748;2023-12-04T04:30:58;10.52;;;4.07;;
18302;SDS011;9277;37.980;23.748;2023-12-04T04:33:25;13.02;;;4.30;;
18302;SDS011;9277;37.980;23.748;2023-12-04T04:35:52;8.77;;;3.97;;
18302;SDS011;9277;37.980;23.748;2023-12-04T04:38:19;12.98;;;4.03;;
18302;SDS011;9277;37.980;23.748;2023-12-04T04:40:46;10.32;;;3.75;;
18302;SDS011;9277;37.980;23.748;2023-12-04T04:43:14;9.77;;;3.78;;
18302;SDS011;9277;37.980;23.748;2023-12-04T04:45:41;9.35;;;4.10;;
18302;SDS011;9277;37.980;23.748;2023-12-04T04:48:08;10.95;;;4.00;;
18302;SDS011;9277;37.980;23.748;2023-12-04T04:50:35;10.23;;;3.67;;
18302;SDS011;9277;37.980;23.748;2023-12-04T04:53:02;14.40;;;4.07;;
18302;SDS011;9277;37.980;23.748;2023-12-04T04:55:28;9.05;;;3.75;;
18302;SDS011;9277;37.980;23.748;2023-12-04T04:57:55;9.50;;;4.97;;
18302;SDS011;9277;37.980;23.748;2023-12-04T05:00:24;13.85;;;4.50;;
18302;SDS011;9277;37.980;23.748;2023-12-04T05:02:52;12.93;;;4.75;;
18302;SDS011;9277;37.980;23.748;2023-12-04T05:05:18;10.23;;;4.10;;
18302;SDS011;9277;37.980;23.748;2023-12-04T05:07:45;14.52;;;4.68;;
18302;SDS011;9277;37.980;23.748;2023-12-04T05:10:12;18.92;;;4.57;;
18302;SDS011;9277;37.980;23.748;2023-12-04T05:12:39;16.70;;;5.13;;
18302;SDS011;9277;37.980;23.748;2023-12-04T05:15:06;18.88;;;4.88;;
18302;SDS011;9277;37.980;23.748;2023-12-04T05:17:34;14.70;;;5.15;;
18302;SDS011;9277;37.980;23.748;2023-12-04T05:20:01;10.95;;;5.18;;
18302;SDS011;9277;37.980;23.748;2023-12-04T05:22:28;17.65;;;5.38;;
18302;SDS011;9277;37.980;23.748;2023-12-04T05:24:56;11.85;;;4.82;;
18302;SDS011;9277;37.980;23.748;2023-12-04T05:27:23;11.30;;;4.45;;
18302;SDS011;9277;37.980;23.748;2023-12-04T05:29:49;14.00;;;4.32;;
18302;SDS011;9277;37.980;23.748;2023-12-04T05:32:16;12.75;;;5.03;;
18302;SDS011;9277;37.980;23.748;2023-12-04T05:34:44;11.73;;;4.30;;
18302;SDS011;9277;37.980;23.748;2023-12-04T05:37:11;13.88;;;4.15;;
18302;SDS011;9277;37.980;23.748;2023-12-04T05:39:38;11.10;;;4.20;;
18302;SDS011;9277;37.980;23.748;2023-12-04T05:42:05;11.10;;;3.83;;
18302;SDS011;9277;37.980;23.748;2023-12-04T05:44:33;12.00;;;4.05;;
18302;SDS011;9277;37.980;23.748;2023-12-04T05:47:00;8.60;;;3.28;;
18302;SDS011;9277;37.980;23.748;2023-12-04T05:49:27;10.82;;;3.83;;
18302;SDS011;9277;37.980;23.748;2023-12-04T05:51:58;12.00;;;3.95;;
18302;SDS011;9277;37.980;23.748;2023-12-04T05:54:25;12.60;;;4.00;;
18302;SDS011;9277;37.980;23.748;2023-12-04T05:56:52;8.80;;;4.35;;
18302;SDS011;9277;37.980;23.748;2023-12-04T05:59:19;9.13;;;3.95;;
18302;SDS011;9277;37.980;23.748;2023-12-04T06:01:46;7.35;;;3.78;;
18302;SDS011;9277;37.980;23.748;2023-12-04T06:04:13;9.77;;;3.55;;
18302;SDS011;9277;37.980;23.748;2023-12-04T06:06:40;14.23;;;4.60;;
18302;SDS011;9277;37.980;23.748;2023-12-04T06:09:09;12.88;;;4.55;;
18302;SDS011;9277;37.980;23.748;2023-12-04T06:11:35;17.08;;;4.78;;
18302;SDS011;9277;37.980;23.748;2023-12-04T06:14:02;16.75;;;4.93;;
18302;SDS011;9277;37.980;23.748;2023-12-04T06:16:29;11.73;;;4.38;;
18302;SDS011;9277;37.980;23.748;2023-12-04T06:18:56;15.40;;;4.80;;
18302;SDS011;9277;37.980;23.748;2023-12-04T06:21:23;17.35;;;5.03;;
18302;SDS011;9277;37.980;23.748;2023-12-04T06:23:50;8.68;;;4.80;;
18302;SDS011;9277;37.980;23.748;2023-12-04T06:26:19;18.33;;;5.85;;
18302;SDS011;9277;37.980;23.748;2023-12-04T06:28:46;14.60;;;4.80;;
18302;SDS011;9277;37.980;23.748;2023-12-04T06:31:13;18.67;;;6.13;;
18302;SDS011;9277;37.980;23.748;2023-12-04T06:33:40;24.00;;;6.20;;
18302;SDS011;9277;37.980;23.748;2023-12-04T06:36:08;11.85;;;5.97;;
18302;SDS011;9277;37.980;23.748;2023-12-04T06:38:35;16.60;;;5.50;;
18302;SDS011;9277;37.980;23.748;2023-12-04T06:41:06;19.30;;;5.95;;
18302;SDS011;9277;37.980;23.748;2023-12-04T06:43:35;14.85;;;5.53;;
18302;SDS011;9277;37.980;23.748;2023-12-04T06:46:02;26.13;;;7.07;;
18302;SDS011;9277;37.980;23.748;2023-12-04T06:48:29;21.33;;;5.90;;
18302;SDS011;9277;37.980;23.748;2023-12-04T06:50:56;15.65;;;6.05;;
18302;SDS011;9277;37.980;23.748;2023-12-04T06:53:23;18.70;;;5.90;;
18302;SDS011;9277;37.980;23.748;2023-12-04T06:55:50;15.90;;;5.68;;
18302;SDS011;9277;37.980;23.748;2023-12-04T06:58:17;17.15;;;4.80;;
18302;SDS011;9277;37.980;23.748;2023-12-04T07:00:45;14.07;;;5.25;;
18302;SDS011;9277;37.980;23.748;2023-12-04T07:03:12;14.48;;;5.82;;
18302;SDS011;9277;37.980;23.748;2023-12-04T07:05:39;13.15;;;4.97;;
18302;SDS011;9277;37.980;23.748;2023-12-04T07:08:05;18.40;;;5.82;;
18302;SDS011;9277;37.980;23.748;2023-12-04T07:10:32;18.10;;;5.72;;
18302;SDS011;9277;37.980;23.748;2023-12-04T07:12:59;23.75;;;5.47;;
18302;SDS011;9277;37.980;23.748;2023-12-04T07:15:26;14.23;;;4.82;;
18302;SDS011;9277;37.980;23.748;2023-12-04T07:17:54;22.92;;;5.30;;
18302;SDS011;9277;37.980;23.748;2023-12-04T07:20:25;13.10;;;5.70;;
18302;SDS011;9277;37.980;23.748;2023-12-04T07:22:52;12.07;;;5.97;;
18302;SDS011;9277;37.980;23.748;2023-12-04T07:25:19;14.98;;;5.43;;
18302;SDS011;9277;37.980;23.748;2023-12-04T07:27:46;14.90;;;5.20;;
18302;SDS011;9277;37.980;23.748;2023-12-04T07:30:13;18.92;;;5.72;;
18302;SDS011;9277;37.980;23.748;2023-12-04T07:32:40;11.95;;;5.55;;
18302;SDS011;9277;37.980;23.748;2023-12-04T07:35:08;13.25;;;4.82;;
18302;SDS011;9277;37.980;23.748;2023-12-04T07:37:35;17.10;;;4.93;;
18302;SDS011;9277;37.980;23.748;2023-12-04T07:40:02;19.90;;;5.78;;
18302;SDS011;9277;37.980;23.748;2023-12-04T07:42:31;21.13;;;5.38;;
18302;SDS011;9277;37.980;23.748;2023-12-04T07:44:58;19.70;;;5.18;;
18302;SDS011;9277;37.980;23.748;2023-12-04T07:47:25;19.48;;;6.15;;
18302;SDS011;9277;37.980;23.748;2023-12-04T07:49:52;21.00;;;6.15;;
18302;SDS011;9277;37.980;23.748;2023-12-04T07:52:21;20.38;;;6.50;;
18302;SDS011;9277;37.980;23.748;2023-12-04T07:54:48;22.17;;;5.40;;
18302;SDS011;9277;37.980;23.748;2023-12-04T07:57:15;14.32;;;5.82;;
18302;SDS011;9277;37.980;23.748;2023-12-04T07:59:42;17.00;;;5.43;;
18302;SDS011;9277;37.980;23.748;2023-12-04T08:02:08;51.38;;;9.63;;
18302;SDS011;9277;37.980;23.748;2023-12-04T08:04:35;32.42;;;6.10;;
18302;SDS011;9277;37.980;23.748;2023-12-04T08:07:02;28.38;;;6.10;;
18302;SDS011;9277;37.980;23.748;2023-12-04T08:09:32;16.92;;;5.40;;
18302;SDS011;9277;37.980;23.748;2023-12-04T08:11:58;20.52;;;5.68;;
18302;SDS011;9277;37.980;23.748;2023-12-04T08:14:25;25.15;;;4.72;;
18302;SDS011;9277;37.980;23.748;2023-12-04T08:16:53;14.18;;;4.20;;
18302;SDS011;9277;37.980;23.748;2023-12-04T08:19:20;18.92;;;4.22;;
18302;SDS011;9277;37.980;23.748;2023-12-04T08:21:48;14.73;;;4.47;;
18302;SDS011;9277;37.980;23.748;2023-12-04T08:24:14;17.80;;;4.80;;
18302;SDS011;9277;37.980;23.748;2023-12-04T08:26:45;21.00;;;5.15;;
18302;SDS011;9277;37.980;23.748;2023-12-04T08:29:12;24.88;;;5.25;;
18302;SDS011;9277;37.980;23.748;2023-12-04T08:31:39;17.30;;;5.38;;
18302;SDS011;9277;37.980;23.748;2023-12-04T08:34:06;15.57;;;4.75;;
18302;SDS011;9277;37.980;23.748;2023-12-04T08:36:33;17.85;;;5.00;;
18302;SDS011;9277;37.980;23.748;2023-12-04T08:39:01;14.43;;;5.40;;
18302;SDS011;9277;37.980;23.748;2023-12-04T08:41:29;18.88;;;6.18;;
18302;SDS011;9277;37.980;23.748;2023-12-04T08:43:57;18.40;;;6.75;;
18302;SDS011;9277;37.980;23.748;2023-12-04T08:46:24;25.98;;;7.47;;
18302;SDS011;9277;37.980;23.748;2023-12-04T08:48:51;19.40;;;7.22;;
18302;SDS011;9277;37.980;23.748;2023-12-04T08:51:18;21.23;;;7.18;;
18302;SDS011;9277;37.980;23.748;2023-12-04T08:53:45;41.05;;;13.75;;
18302;SDS011;9277;37.980;23.748;2023-12-04T08:56:12;23.67;;;8.80;;
18302;SDS011;9277;37.980;23.748;2023-12-04T08:58:39;17.70;;;7.38;;
18302;SDS011;9277;37.980;23.748;2023-12-04T09:01:07;17.73;;;6.90;;
18302;SDS011;9277;37.980;23.748;2023-12-04T09:03:37;20.23;;;6.95;;
18302;SDS011;9277;37.980;23.748;2023-12-04T09:06:04;21.15;;;6.63;;
18302;SDS011;9277;37.980;23.748;2023-12-04T09:08:31;17.23;;;5.97;;
18302;SDS011;9277;37.980;23.748;2023-12-04T09:10:58;17.25;;;6.32;;
18302;SDS011;9277;37.980;23.748;2023-12-04T09:13:25;14.20;;;5.65;;
18302;SDS011;9277;37.980;23.748;2023-12-04T09:15:52;16.15;;;5.78;;
18302;SDS011;9277;37.980;23.748;2023-12-04T09:18:20;21.45;;;6.30;;
18302;SDS011;9277;37.980;23.748;2023-12-04T09:20:47;16.73;;;6.15;;
18302;SDS011;9277;37.980;23.748;2023-12-04T09:23:14;14.63;;;5.95;;
18302;SDS011;9277;37.980;23.748;2023-12-04T09:25:41;21.77;;;5.20;;
18302;SDS011;9277;37.980;23.748;2023-12-04T09:28:08;15.55;;;5.05;;
18302;SDS011;9277;37.980;23.748;2023-12-04T09:30:35;11.75;;;4.45;;
18302;SDS011;9277;37.980;23.748;2023-12-04T09:33:02;13.95;;;4.40;;
18302;SDS011;9277;37.980;23.748;2023-12-04T09:35:31;8.95;;;3.92;;
18302;SDS011;9277;37.980;23.748;2023-12-04T09:37:58;10.35;;;4.00;;
18302;SDS011;9277;37.980;23.748;2023-12-04T09:40:25;18.63;;;4.40;;
18302;SDS011;9277;37.980;23.748;2023-12-04T09:42:51;13.40;;;4.15;;
18302;SDS011;9277;37.980;23.748;2023-12-04T09:45:19;9.77;;;3.83;;
18302;SDS011;9277;37.980;23.748;2023-12-04T09:47:47;20.60;;;4.70;;
18302;SDS011;9277;37.980;23.748;2023-12-04T09:50:14;9.93;;;3.58;;
18302;SDS011;9277;37.980;23.748;2023-12-04T09:52:43;11.38;;;4.53;;
18302;SDS011;9277;37.980;23.748;2023-12-04T09:55:10;9.75;;;3.78;;
18302;SDS011;9277;37.980;23.748;2023-12-04T09:57:37;13.40;;;4.05;;
18302;SDS011;9277;37.980;23.748;2023-12-04T10:00:05;19.20;;;4.13;;
18302;SDS011;9277;37.980;23.748;2023-12-04T10:02:32;13.73;;;3.45;;
18302;SDS011;9277;37.980;23.748;2023-12-04T10:04:59;11.88;;;4.43;;
18302;SDS011;9277;37.980;23.748;2023-12-04T10:07:26;13.43;;;3.97;;
18302;SDS011;9277;37.980;23.748;2023-12-04T10:09:54;11.55;;;3.30;;
18302;SDS011;9277;37.980;23.748;2023-12-04T10:12:21;16.70;;;3.33;;
18302;SDS011;9277;37.980;23.748;2023-12-04T10:15:02;8.25;;;3.30;;
18302;SDS011;9277;37.980;23.748;2023-12-04T10:17:32;14.60;;;3.55;;
18302;SDS011;9277;37.980;23.748;2023-12-04T10:20:04;10.23;;;3.85;;
18302;SDS011;9277;37.980;23.748;2023-12-04T10:22:36;7.85;;;3.25;;
18302;SDS011;9277;37.980;23.748;2023-12-04T10:25:13;9.93;;;3.15;;
18302;SDS011;9277;37.980;23.748;2023-12-04T10:27:40;11.77;;;3.42;;
18302;SDS011;9277;37.980;23.748;2023-12-04T10:30:07;15.50;;;3.72;;
18302;SDS011;9277;37.980;23.748;2023-12-04T10:32:36;9.15;;;3.03;;
18302;SDS011;9277;37.980;23.748;2023-12-04T10:35:03;7.35;;;4.05;;
18302;SDS011;9277;37.980;23.748;2023-12-04T10:37:35;10.07;;;3.05;;
18302;SDS011;9277;37.980;23.748;2023-12-04T10:40:03;13.95;;;3.25;;
18302;SDS011;9277;37.980;23.748;2023-12-04T10:42:35;9.18;;;3.60;;
18302;SDS011;9277;37.980;23.748;2023-12-04T10:45:02;13.68;;;3.20;;
18302;SDS011;9277;37.980;23.748;2023-12-04T10:47:31;9.77;;;3.58;;
18302;SDS011;9277;37.980;23.748;2023-12-04T10:50:00;15.85;;;3.53;;
18302;SDS011;9277;37.980;23.748;2023-12-04T10:52:27;11.55;;;3.15;;
18302;SDS011;9277;37.980;23.748;2023-12-04T10:54:55;7.82;;;3.38;;
18302;SDS011;9277;37.980;23.748;2023-12-04T10:57:25;6.25;;;3.00;;
18302;SDS011;9277;37.980;23.748;2023-12-04T10:59:56;10.98;;;3.28;;
18302;SDS011;9277;37.980;23.748;2023-12-04T11:02:25;11.65;;;3.55;;
18302;SDS011;9277;37.980;23.748;2023-12-04T11:04:53;5.10;;;2.63;;
18302;SDS011;9277;37.980;23.748;2023-12-04T11:07:21;9.70;;;3.45;;
18302;SDS011;9277;37.980;23.748;2023-12-04T11:09:49;8.90;;;2.67;;
18302;SDS011;9277;37.980;23.748;2023-12-04T11:12:17;10.15;;;4.00;;
18302;SDS011;9277;37.980;23.748;2023-12-04T11:14:44;6.80;;;3.85;;
18302;SDS011;9277;37.980;23.748;2023-12-04T11:17:15;16.00;;;3.33;;
18302;SDS011;9277;37.980;23.748;2023-12-04T11:19:55;8.95;;;3.40;;
18302;SDS011;9277;37.980;23.748;2023-12-04T11:22:24;7.88;;;3.15;;
18302;SDS011;9277;37.980;23.748;2023-12-04T11:24:52;10.75;;;3.30;;
18302;SDS011;9277;37.980;23.748;2023-12-04T11:27:19;8.40;;;3.38;;
18302;SDS011;9277;37.980;23.748;2023-12-04T11:29:46;9.60;;;3.50;;
18302;SDS011;9277;37.980;23.748;2023-12-04T11:32:15;8.25;;;3.80;;
18302;SDS011;9277;37.980;23.748;2023-12-04T11:34:49;8.10;;;2.90;;
18302;SDS011;9277;37.980;23.748;2023-12-04T11:37:17;6.40;;;2.83;;
18302;SDS011;9277;37.980;23.748;2023-12-04T11:39:46;6.60;;;2.65;;
18302;SDS011;9277;37.980;23.748;2023-12-04T11:42:13;8.15;;;2.70;;
18302;SDS011;9277;37.980;23.748;2023-12-04T11:44:40;9.10;;;2.60;;
18302;SDS011;9277;37.980;23.748;2023-12-04T11:47:08;6.88;;;3.22;;
18302;SDS011;9277;37.980;23.748;2023-12-04T11:49:36;10.75;;;3.10;;
18302;SDS011;9277;37.980;23.748;2023-12-04T11:52:03;8.00;;;3.08;;
18302;SDS011;9277;37.980;23.748;2023-12-04T11:54:55;5.30;;;2.95;;
18302;SDS011;9277;37.980;23.748;2023-12-04T11:57:20;9.63;;;3.45;;
18302;SDS011;9277;37.980;23.748;2023-12-04T11:59:49;7.75;;;2.78;;
18302;SDS011;9277;37.980;23.748;2023-12-04T12:02:16;8.63;;;3.42;;
18302;SDS011;9277;37.980;23.748;2023-12-04T12:04:45;12.02;;;2.70;;
18302;SDS011;9277;37.980;23.748;2023-12-04T12:07:12;8.02;;;2.92;;
18302;SDS011;9277;37.980;23.748;2023-12-04T12:09:39;8.82;;;3.08;;
18302;SDS011;9277;37.980;23.748;2023-12-04T12:12:06;6.43;;;2.90;;
18302;SDS011;9277;37.980;23.748;2023-12-04T12:14:34;9.57;;;2.75;;
18302;SDS011;9277;37.980;23.748;2023-12-04T12:17:01;5.95;;;2.65;;
18302;SDS011;9277;37.980;23.748;2023-12-04T12:19:28;11.20;;;2.60;;
18302;SDS011;9277;37.980;23.748;2023-12-04T12:21:56;8.20;;;2.83;;
18302;SDS011;9277;37.980;23.748;2023-12-04T12:24:24;11.52;;;3.08;;
18302;SDS011;9277;37.980;23.748;2023-12-04T12:26:51;8.57;;;2.92;;
18302;SDS011;9277;37.980;23.748;2023-12-04T12:29:21;14.05;;;3.40;;
18302;SDS011;9277;37.980;23.748;2023-12-04T12:31:48;5.65;;;2.33;;
18302;SDS011;9277;37.980;23.748;2023-12-04T12:34:14;8.25;;;2.88;;
18302;SDS011;9277;37.980;23.748;2023-12-04T12:36:41;5.55;;;3.00;;
18302;SDS011;9277;37.980;23.748;2023-12-04T12:39:10;9.25;;;2.53;;
18302;SDS011;9277;37.980;23.748;2023-12-04T12:41:37;6.70;;;2.70;;
18302;SDS011;9277;37.980;23.748;2023-12-04T12:44:05;6.80;;;2.45;;
18302;SDS011;9277;37.980;23.748;2023-12-04T12:46:32;5.07;;;2.80;;
18302;SDS011;9277;37.980;23.748;2023-12-04T12:49:00;9.32;;;2.95;;
18302;SDS011;9277;37.980;23.748;2023-12-04T12:51:26;7.57;;;3.20;;
18302;SDS011;9277;37.980;23.748;2023-12-04T12:53:54;6.10;;;3.20;;
18302;SDS011;9277;37.980;23.748;2023-12-04T12:56:25;10.88;;;3.13;;
18302;SDS011;9277;37.980;23.748;2023-12-04T12:58:52;9.68;;;3.10;;
18302;SDS011;9277;37.980;23.748;2023-12-04T13:01:19;7.60;;;2.75;;
18302;SDS011;9277;37.980;23.748;2023-12-04T13:03:51;10.27;;;2.15;;
18302;SDS011;9277;37.980;23.748;2023-12-04T13:06:18;7.63;;;3.20;;
18302;SDS011;9277;37.980;23.748;2023-12-04T13:08:45;6.70;;;2.92;;
18302;SDS011;9277;37.980;23.748;2023-12-04T13:11:11;10.52;;;3.35;;
18302;SDS011;9277;37.980;23.748;2023-12-04T13:13:40;8.98;;;2.67;;
18302;SDS011;9277;37.980;23.748;2023-12-04T13:16:07;9.45;;;2.83;;
18302;SDS011;9277;37.980;23.748;2023-12-04T13:18:35;8.70;;;2.72;;
18302;SDS011;9277;37.980;23.748;2023-12-04T13:21:03;7.35;;;2.58;;
18302;SDS011;9277;37.980;23.748;2023-12-04T13:23:30;12.23;;;2.70;;
18302;SDS011;9277;37.980;23.748;2023-12-04T13:25:57;4.10;;;2.40;;
18302;SDS011;9277;37.980;23.748;2023-12-04T13:28:27;4.53;;;2.53;;
18302;SDS011;9277;37.980;23.748;2023-12-04T13:30:56;2.88;;;2.10;;
18302;SDS011;9277;37.980;23.748;2023-12-04T13:33:23;5.18;;;2.28;;
18302;SDS011;9277;37.980;23.748;2023-12-04T13:35:58;6.13;;;2.83;;
18302;SDS011;9277;37.980;23.748;2023-12-04T13:38:26;7.03;;;2.35;;
18302;SDS011;9277;37.980;23.748;2023-12-04T13:40:52;4.35;;;2.53;;
18302;SDS011;9277;37.980;23.748;2023-12-04T13:43:33;3.95;;;2.20;;
18302;SDS011;9277;37.980;23.748;2023-12-04T13:46:19;3.75;;;1.70;;
18302;SDS011;9277;37.980;23.748;2023-12-04T13:48:50;5.75;;;2.30;;
18302;SDS011;9277;37.980;23.748;2023-12-04T13:51:17;2.00;;;1.75;;
18302;SDS011;9277;37.980;23.748;2023-12-04T13:53:45;3.00;;;1.65;;
18302;SDS011;9277;37.980;23.748;2023-12-04T13:56:15;4.25;;;1.75;;
18302;SDS011;9277;37.980;23.748;2023-12-04T13:59:00;5.50;;;1.65;;
18302;SDS011;9277;37.980;23.748;2023-12-04T14:01:31;3.95;;;1.65;;
18302;SDS011;9277;37.980;23.748;2023-12-04T14:03:59;3.47;;;1.60;;
18302;SDS011;9277;37.980;23.748;2023-12-04T14:06:29;3.60;;;1.67;;
18302;SDS011;9277;37.980;23.748;2023-12-04T14:08:56;3.15;;;1.30;;
18302;SDS011;9277;37.980;23.748;2023-12-04T14:11:23;4.22;;;1.38;;
18302;SDS011;9277;37.980;23.748;2023-12-04T14:13:50;1.30;;;1.30;;
18302;SDS011;9277;37.980;23.748;2023-12-04T14:16:23;2.38;;;1.83;;
18302;SDS011;9277;37.980;23.748;2023-12-04T14:18:52;3.55;;;1.42;;
18302;SDS011;9277;37.980;23.748;2023-12-04T14:21:19;2.20;;;1.50;;
18302;SDS011;9277;37.980;23.748;2023-12-04T14:23:46;2.00;;;1.90;;
18302;SDS011;9277;37.980;23.748;2023-12-04T14:26:13;2.55;;;1.55;;
18302;SDS011;9277;37.980;23.748;2023-12-04T14:28:39;5.07;;;1.70;;
18302;SDS011;9277;37.980;23.748;2023-12-04T14:31:06;2.15;;;1.50;;
18302;SDS011;9277;37.980;23.748;2023-12-04T14:33:33;1.88;;;1.77;;
18302;SDS011;9277;37.980;23.748;2023-12-04T14:36:02;5.97;;;1.77;;
18302;SDS011;9277;37.980;23.748;2023-12-04T14:38:29;6.22;;;1.85;;
18302;SDS011;9277;37.980;23.748;2023-12-04T14:40:56;2.60;;;1.58;;